createdAt,value
2022-09-23T00:01:05.427Z,5.10
2022-09-23T00:03:32.531Z,4.87
2022-09-23T00:06:01.193Z,5.93
2022-09-23T00:08:28.106Z,5.00
2022-09-23T00:10:55.687Z,5.97
2022-09-23T00:13:24.521Z,4.53
2022-09-23T00:15:52.335Z,4.60
2022-09-23T00:18:20.635Z,4.30
2022-09-23T00:20:47.003Z,5.20
2022-09-23T00:23:13.438Z,5.00
2022-09-23T00:25:39.723Z,4.80
2022-09-23T00:28:06.061Z,4.73
2022-09-23T00:30:32.890Z,5.20
2022-09-23T00:32:59.585Z,4.87
2022-09-23T00:35:25.974Z,5.30
2022-09-23T00:37:52.372Z,4.60
2022-09-23T00:40:19.030Z,6.03
2022-09-23T00:42:48.908Z,4.83
2022-09-23T00:45:16.783Z,5.00
2022-09-23T00:47:50.449Z,5.03
2022-09-23T00:50:41.177Z,4.40
2022-09-23T00:53:10.455Z,4.47
2022-09-23T00:55:43.818Z,4.20
2022-09-23T00:58:14.949Z,5.27
2022-09-23T01:00:42.576Z,4.83
2022-09-23T01:03:10.569Z,4.77
2022-09-23T01:05:36.927Z,5.03
2022-09-23T01:08:05.066Z,4.23
2022-09-23T01:10:43.547Z,4.40
2022-09-23T01:13:49.345Z,4.90
2022-09-23T01:16:23.504Z,4.90
2022-09-23T01:19:08.675Z,5.20
2022-09-23T01:22:04.909Z,4.10
2022-09-23T01:24:46.507Z,4.47
2022-09-23T01:27:36.335Z,4.93
2022-09-23T01:30:12.323Z,4.80
2022-09-23T01:33:04.635Z,4.77
2022-09-23T01:35:45.713Z,5.00
2022-09-23T01:38:16.215Z,4.70
2022-09-23T01:40:51.622Z,4.90
2022-09-23T01:43:30.908Z,5.27
2022-09-23T01:46:00.227Z,4.73
2022-09-23T01:48:33.905Z,4.63
2022-09-23T01:51:11.752Z,5.07
2022-09-23T01:53:49.428Z,4.50
2022-09-23T01:56:22.164Z,4.80
2022-09-23T01:59:16.803Z,4.60
2022-09-23T02:01:52.060Z,5.00
2022-09-23T02:04:25.057Z,5.07
2022-09-23T02:07:03.359Z,5.30
2022-09-23T02:09:37.192Z,4.03
2022-09-23T02:12:08.184Z,5.37
2022-09-23T02:14:58.389Z,5.00
2022-09-23T02:17:36.595Z,5.07
2022-09-23T02:20:05.847Z,4.40
2022-09-23T02:22:42.523Z,4.30
2022-09-23T02:25:09.867Z,4.43
2022-09-23T02:27:45.305Z,5.37
2022-09-23T02:30:15.691Z,5.77
2022-09-23T02:32:42.007Z,5.17
2022-09-23T02:35:19.761Z,4.97
2022-09-23T02:38:04.275Z,4.43
2022-09-23T02:41:00.420Z,4.63
2022-09-23T02:43:45.491Z,4.93
2022-09-23T02:46:12.140Z,4.97
2022-09-23T02:48:49.129Z,4.73
2022-09-23T02:51:15.758Z,4.80
2022-09-23T02:53:43.147Z,5.17
2022-09-23T02:56:19.499Z,4.47
2022-09-23T02:58:51.732Z,4.87
2022-09-23T03:01:39.196Z,5.37
2022-09-23T03:04:28.111Z,5.00
2022-09-23T03:07:20.201Z,4.47
2022-09-23T03:09:55.708Z,4.90
2022-09-23T03:12:52.855Z,5.20
2022-09-23T03:15:33.260Z,4.87
2022-09-23T03:18:23.487Z,4.50
2022-09-23T03:20:55.747Z,5.17
2022-09-23T03:23:27.286Z,5.33
2022-09-23T03:25:58.052Z,4.57
2022-09-23T03:28:25.523Z,4.80
2022-09-23T03:30:54.431Z,5.50
2022-09-23T03:33:28.513Z,5.73
2022-09-23T03:36:21.008Z,5.60
2022-09-23T03:38:52.211Z,5.67
2022-09-23T03:41:30.021Z,5.67
2022-09-23T03:43:59.657Z,5.10
2022-09-23T03:46:30.095Z,5.40
2022-09-23T03:49:04.342Z,6.00
2022-09-23T03:51:30.775Z,4.60
2022-09-23T03:53:57.769Z,5.40
2022-09-23T03:56:24.081Z,5.60
2022-09-23T03:58:50.437Z,5.90
2022-09-23T04:01:16.876Z,6.10
2022-09-23T04:03:43.323Z,5.63
2022-09-23T04:06:09.674Z,5.27
2022-09-23T04:08:35.977Z,5.60
2022-09-23T04:11:04.597Z,4.90
2022-09-23T04:13:31.751Z,5.30
2022-09-23T04:15:58.615Z,5.70
2022-09-23T04:18:25.166Z,5.60
2022-09-23T04:20:51.481Z,5.50
2022-09-23T04:23:17.771Z,4.77
2022-09-23T04:25:48.274Z,4.80
2022-09-23T04:28:15.098Z,4.93
2022-09-23T04:30:43.661Z,5.27
2022-09-23T04:33:11.150Z,5.00
2022-09-23T04:35:40.569Z,5.27
2022-09-23T04:38:07.349Z,6.07
2022-09-23T04:40:34.140Z,5.47
2022-09-23T04:43:00.610Z,5.33
2022-09-23T04:45:26.914Z,4.77
2022-09-23T04:47:53.267Z,5.07
2022-09-23T04:50:19.593Z,5.47
2022-09-23T04:52:45.899Z,5.60
2022-09-23T04:55:12.236Z,4.83
2022-09-23T04:57:38.581Z,5.00
2022-09-23T05:00:05.489Z,5.20
2022-09-23T05:02:35.537Z,5.07
2022-09-23T05:05:01.887Z,4.60
2022-09-23T05:07:28.202Z,5.13
2022-09-23T05:09:55.003Z,4.80
2022-09-23T05:12:21.273Z,5.87
2022-09-23T05:14:47.584Z,6.17
2022-09-23T05:17:14.615Z,5.63
2022-09-23T05:19:40.925Z,5.53
2022-09-23T05:22:07.409Z,6.67
2022-09-23T05:24:33.941Z,5.53
2022-09-23T05:27:00.801Z,5.10
2022-09-23T05:29:27.889Z,4.83
2022-09-23T05:31:54.247Z,5.03
2022-09-23T05:34:20.892Z,5.60
2022-09-23T05:36:47.388Z,5.20
2022-09-23T05:39:13.765Z,5.67
2022-09-23T05:41:43.424Z,6.00
2022-09-23T05:44:10.139Z,5.67
2022-09-23T05:46:36.527Z,5.47
2022-09-23T05:49:05.301Z,5.60
2022-09-23T05:51:33.699Z,5.77
2022-09-23T05:54:03.139Z,5.30
2022-09-23T05:56:31.156Z,5.67
2022-09-23T05:59:00.044Z,5.73
2022-09-23T06:01:31.144Z,5.83
2022-09-23T06:03:58.358Z,5.70
2022-09-23T06:06:28.453Z,5.90
2022-09-23T06:08:54.772Z,6.10
2022-09-23T06:11:21.398Z,6.50
2022-09-23T06:13:48.443Z,6.30
2022-09-23T06:16:16.417Z,5.70
2022-09-23T06:18:44.547Z,5.50
2022-09-23T06:21:16.869Z,5.43
2022-09-23T06:23:44.854Z,6.40
2022-09-23T06:26:13.547Z,6.60
2022-09-23T06:28:42.875Z,5.93
2022-09-23T06:31:16.523Z,6.10
2022-09-23T06:33:44.882Z,6.40
2022-09-23T06:36:14.458Z,6.23
2022-09-23T06:38:44.632Z,6.67
2022-09-23T06:41:12.162Z,6.40
2022-09-23T06:43:38.548Z,6.50
2022-09-23T06:46:07.240Z,7.70
2022-09-23T06:48:35.387Z,7.17
2022-09-23T06:51:07.437Z,21.30
2022-09-23T06:53:34.295Z,8.67
2022-09-23T06:56:06.913Z,8.80
2022-09-23T06:58:34.931Z,10.83
2022-09-23T07:01:03.600Z,9.00
2022-09-23T07:03:31.661Z,10.33
2022-09-23T07:05:58.978Z,8.20
2022-09-23T07:08:27.905Z,7.90
2022-09-23T07:10:59.334Z,5.70
2022-09-23T07:13:33.264Z,6.40
2022-09-23T07:16:02.808Z,7.43
2022-09-23T07:18:37.033Z,7.40
2022-09-23T07:21:14.880Z,6.63
2022-09-23T07:23:46.269Z,7.07
2022-09-23T07:26:17.931Z,7.40
2022-09-23T07:28:44.525Z,7.30
2022-09-23T07:31:16.822Z,7.63
2022-09-23T07:33:44.453Z,8.30
2022-09-23T07:36:17.369Z,7.90
2022-09-23T07:38:45.637Z,7.40
2022-09-23T07:41:14.411Z,7.20
2022-09-23T07:43:41.062Z,7.73
2022-09-23T07:46:13.043Z,8.50
2022-09-23T07:48:39.565Z,8.90
2022-09-23T07:51:16.971Z,8.80
2022-09-23T07:53:47.214Z,8.83
2022-09-23T07:56:21.908Z,10.83
2022-09-23T07:58:59.987Z,9.50
2022-09-23T08:01:29.310Z,9.77
2022-09-23T08:03:57.384Z,8.60
2022-09-23T08:06:25.015Z,10.43
2022-09-23T08:08:53.432Z,9.30
2022-09-23T08:11:20.317Z,9.93
2022-09-23T08:13:46.662Z,10.80
2022-09-23T08:16:13.747Z,11.67
2022-09-23T08:18:44.730Z,12.13
2022-09-23T08:21:11.443Z,10.80
2022-09-23T08:23:38.153Z,11.43
2022-09-23T08:26:10.463Z,10.53
2022-09-23T08:28:44.308Z,11.57
2022-09-23T08:31:13.466Z,11.20
2022-09-23T08:33:40.748Z,10.50
2022-09-23T08:36:07.776Z,11.10
2022-09-23T08:38:34.242Z,10.73
2022-09-23T08:41:36.076Z,10.80
2022-09-23T08:44:07.253Z,10.97
2022-09-23T08:46:42.199Z,11.97
2022-09-23T08:49:14.033Z,12.13
2022-09-23T08:51:46.682Z,12.27
2022-09-23T08:54:16.299Z,13.63
2022-09-23T08:56:48.478Z,12.77
2022-09-23T08:59:23.451Z,13.87
2022-09-23T09:01:53.720Z,14.33
2022-09-23T09:04:20.008Z,13.57
2022-09-23T09:06:54.291Z,13.60
2022-09-23T09:09:23.948Z,14.20
2022-09-23T09:11:57.793Z,13.43
2022-09-23T09:14:40.261Z,13.63
2022-09-23T09:17:10.135Z,13.60
2022-09-23T09:19:52.055Z,16.33
2022-09-23T09:22:34.071Z,13.20
2022-09-23T09:25:14.368Z,13.40
2022-09-23T09:27:41.386Z,13.30
2022-09-23T09:30:14.514Z,14.60
2022-09-23T09:32:48.233Z,14.07
2022-09-23T09:35:29.184Z,14.17
2022-09-23T09:37:55.845Z,14.60
2022-09-23T09:40:22.186Z,15.63
2022-09-23T09:42:50.367Z,15.67
2022-09-23T09:45:26.147Z,15.17
2022-09-23T09:48:17.508Z,14.87
2022-09-23T09:50:46.073Z,13.17
2022-09-23T09:53:27.063Z,13.63
2022-09-23T09:56:05.407Z,14.43
2022-09-23T09:58:44.299Z,13.97
2022-09-23T10:01:31.102Z,13.60
2022-09-23T10:04:00.707Z,12.00
2022-09-23T10:06:29.871Z,13.20
2022-09-23T10:09:02.302Z,11.80
2022-09-23T10:11:29.594Z,12.90
2022-09-23T10:14:05.220Z,12.50
2022-09-23T10:16:34.510Z,12.40
2022-09-23T10:19:02.831Z,12.30
2022-09-23T10:21:37.487Z,13.43
2022-09-23T10:24:06.472Z,11.90
2022-09-23T10:26:40.270Z,12.10
2022-09-23T10:29:38.932Z,11.80
2022-09-23T10:32:38.705Z,11.70
2022-09-23T10:35:14.248Z,10.90
2022-09-23T10:37:50.377Z,10.90
2022-09-23T10:41:02.155Z,11.13
2022-09-23T10:43:56.628Z,10.53
2022-09-23T10:46:38.906Z,9.20
2022-09-23T10:49:27.523Z,8.77
2022-09-23T10:52:11.958Z,8.93
2022-09-23T10:55:15.807Z,9.47
2022-09-23T10:57:45.268Z,9.33
2022-09-23T11:00:28.958Z,8.73
2022-09-23T11:03:38.351Z,9.37
2022-09-23T11:06:20.104Z,9.10
2022-09-23T11:09:02.062Z,9.50
2022-09-23T11:11:34.637Z,9.30
2022-09-23T11:14:25.616Z,8.83
2022-09-23T11:17:23.010Z,7.70
2022-09-23T11:20:26.927Z,8.33
2022-09-23T11:23:28.284Z,7.60
2022-09-23T11:26:01.641Z,7.77
2022-09-23T11:29:00.367Z,7.17
2022-09-23T11:31:59.583Z,7.63
2022-09-23T11:35:11.325Z,6.33
2022-09-23T11:37:43.258Z,6.70
2022-09-23T11:40:24.335Z,6.33
2022-09-23T11:42:58.499Z,6.40
2022-09-23T11:45:30.950Z,5.90
2022-09-23T11:48:02.652Z,5.63
2022-09-23T11:50:38.220Z,5.67
2022-09-23T11:53:16.053Z,5.40
2022-09-23T11:55:56.469Z,4.57
2022-09-23T11:58:31.095Z,5.87
2022-09-23T12:01:16.201Z,5.53
2022-09-23T12:04:12.825Z,5.40
2022-09-23T12:06:47.021Z,5.97
2022-09-23T12:09:53.893Z,6.10
2022-09-23T12:12:27.090Z,6.00
2022-09-23T12:15:14.199Z,6.60
2022-09-23T12:17:58.760Z,7.30
2022-09-23T12:20:37.467Z,6.77
2022-09-23T12:23:45.669Z,7.80
2022-09-23T12:26:17.682Z,6.13
2022-09-23T12:28:46.275Z,6.60
2022-09-23T12:31:16.103Z,6.80
2022-09-23T12:34:09.054Z,6.00
2022-09-23T12:36:36.285Z,6.87
2022-09-23T12:39:15.033Z,6.13
2022-09-23T12:41:46.194Z,7.50
2022-09-23T12:44:13.417Z,8.20
2022-09-23T12:46:40.880Z,6.57
2022-09-23T12:49:27.414Z,7.60
2022-09-23T12:52:13.646Z,6.80
2022-09-23T12:54:42.083Z,6.90
2022-09-23T12:57:11.725Z,6.60
2022-09-23T12:59:58.227Z,7.17
2022-09-23T13:02:32.173Z,7.27
2022-09-23T13:05:26.403Z,7.10
2022-09-23T13:08:13.522Z,6.57
2022-09-23T13:11:08.720Z,5.97
2022-09-23T13:13:41.469Z,6.80
2022-09-23T13:16:39.611Z,7.97
2022-09-23T13:19:25.943Z,6.80
2022-09-23T13:22:09.277Z,6.87
2022-09-23T13:24:40.800Z,5.73
2022-09-23T13:27:19.209Z,5.80
2022-09-23T13:30:07.828Z,5.67
2022-09-23T13:32:43.750Z,5.10
2022-09-23T13:35:13.088Z,6.30
2022-09-23T13:37:47.784Z,5.80
2022-09-23T13:40:21.107Z,5.70
2022-09-23T13:42:53.718Z,5.40
2022-09-23T13:45:23.893Z,5.60
2022-09-23T13:47:53.144Z,5.60
2022-09-23T13:50:22.526Z,5.90
2022-09-23T13:53:02.028Z,5.40
2022-09-23T13:55:37.120Z,4.77
2022-09-23T13:58:12.303Z,6.50
2022-09-23T14:00:39.493Z,5.43
2022-09-23T14:03:36.765Z,3.87
2022-09-23T14:06:14.465Z,4.87
2022-09-23T14:08:50.678Z,5.50
2022-09-23T14:11:19.197Z,4.47
2022-09-23T14:13:47.451Z,4.13
2022-09-23T14:16:15.937Z,5.80
2022-09-23T14:18:49.363Z,5.73
2022-09-23T14:21:27.858Z,5.60
2022-09-23T14:23:54.895Z,4.20
2022-09-23T14:26:23.213Z,4.43
2022-09-23T14:28:50.117Z,5.47
2022-09-23T14:31:16.766Z,4.93
2022-09-23T14:33:43.439Z,5.10
2022-09-23T14:36:33.709Z,4.30
2022-09-23T14:39:05.215Z,5.57
2022-09-23T14:41:37.027Z,4.67
2022-09-23T14:44:04.296Z,4.40
2022-09-23T14:46:35.959Z,4.67
2022-09-23T14:49:16.998Z,4.60
2022-09-23T14:51:53.617Z,4.13
2022-09-23T14:54:43.668Z,4.63
2022-09-23T14:57:22.505Z,4.70
2022-09-23T15:00:08.177Z,5.00
2022-09-23T15:02:45.968Z,5.60
2022-09-23T15:05:30.121Z,4.47
2022-09-23T15:07:59.991Z,4.47
2022-09-23T15:10:30.705Z,5.00
2022-09-23T15:13:05.120Z,4.57
2022-09-23T15:15:31.577Z,4.97
2022-09-23T15:18:07.310Z,5.50
2022-09-23T15:20:35.497Z,5.10
2022-09-23T15:23:01.958Z,5.23
2022-09-23T15:25:33.948Z,4.77
2022-09-23T15:28:10.574Z,4.27
2022-09-23T15:30:38.122Z,5.07
2022-09-23T15:33:05.095Z,4.67
2022-09-23T15:35:32.139Z,4.57
2022-09-23T15:38:01.659Z,4.60
2022-09-23T15:40:31.022Z,4.47
2022-09-23T15:43:00.586Z,3.50
2022-09-23T15:45:36.566Z,4.63
2022-09-23T15:48:11.562Z,4.70
2022-09-23T15:50:38.339Z,4.63
2022-09-23T15:53:05.894Z,4.70
2022-09-23T15:55:33.036Z,4.40
2022-09-23T15:57:59.729Z,5.33
2022-09-23T16:00:26.109Z,4.80
2022-09-23T16:02:53.931Z,5.20
2022-09-23T16:05:26.976Z,5.83
2022-09-23T16:07:53.553Z,5.43
2022-09-23T16:10:21.337Z,5.27
2022-09-23T16:12:48.879Z,5.03
2022-09-23T16:15:18.893Z,5.70
2022-09-23T16:17:45.236Z,4.70
2022-09-23T16:20:13.380Z,5.70
2022-09-23T16:22:39.726Z,6.17
2022-09-23T16:25:08.769Z,6.33
2022-09-23T16:27:35.107Z,4.90
2022-09-23T16:30:01.479Z,6.00
2022-09-23T16:32:27.831Z,5.37
2022-09-23T16:34:54.135Z,5.00
2022-09-23T16:37:21.248Z,4.90
2022-09-23T16:39:49.740Z,5.70
2022-09-23T16:42:16.129Z,5.10
2022-09-23T16:44:42.743Z,6.60
2022-09-23T16:47:09.411Z,5.50
2022-09-23T16:49:35.949Z,5.33
2022-09-23T16:52:02.366Z,6.10
2022-09-23T16:54:28.742Z,7.07
2022-09-23T16:56:55.075Z,6.80
2022-09-23T16:59:21.499Z,6.43
2022-09-23T17:02:06.532Z,7.03
2022-09-23T17:04:32.912Z,6.97
2022-09-23T17:06:59.482Z,7.20
2022-09-23T17:09:30.082Z,7.53
2022-09-23T17:12:16.847Z,6.50
2022-09-23T17:14:43.692Z,6.50
2022-09-23T17:17:10.089Z,7.93
2022-09-23T17:19:38.001Z,7.50
2022-09-23T17:22:04.289Z,6.87
2022-09-23T17:24:30.613Z,7.37
2022-09-23T17:26:56.970Z,8.40
2022-09-23T17:29:23.513Z,8.00
2022-09-23T17:31:49.953Z,8.60
2022-09-23T17:34:18.666Z,7.77
2022-09-23T17:36:45.379Z,8.30
2022-09-23T17:39:14.132Z,7.23
2022-09-23T17:41:40.499Z,7.77
2022-09-23T17:44:08.036Z,8.90
2022-09-23T17:46:34.407Z,8.07
2022-09-23T17:49:01.064Z,7.50
2022-09-23T17:51:27.744Z,8.50
2022-09-23T17:53:54.191Z,9.50
2022-09-23T17:56:22.869Z,9.60
2022-09-23T17:58:50.345Z,7.70
2022-09-23T18:01:22.011Z,8.60
2022-09-23T18:03:52.937Z,9.90
2022-09-23T18:06:21.432Z,9.80
2022-09-23T18:08:49.832Z,8.37
2022-09-23T18:11:22.195Z,9.60
2022-09-23T18:13:51.972Z,10.63
2022-09-23T18:16:19.945Z,9.93
2022-09-23T18:18:51.318Z,275.03
2022-09-23T18:21:17.873Z,315.77
2022-09-23T18:23:44.213Z,238.57
2022-09-23T18:26:17.995Z,30.20
2022-09-23T18:28:45.070Z,9.50
2022-09-23T18:31:12.260Z,24.07
2022-09-23T18:33:38.769Z,15.50
2022-09-23T18:36:06.355Z,10.43
2022-09-23T18:38:33.033Z,9.00
2022-09-23T18:41:00.702Z,9.30
2022-09-23T18:43:37.489Z,9.57
2022-09-23T18:46:11.228Z,8.83
2022-09-23T18:48:56.488Z,9.00
2022-09-23T18:51:28.526Z,8.87
2022-09-23T18:53:59.799Z,7.53
2022-09-23T18:56:29.692Z,9.00
2022-09-23T18:58:56.688Z,8.97
2022-09-23T19:01:24.543Z,9.80
2022-09-23T19:04:00.242Z,11.80
2022-09-23T19:06:26.684Z,14.57
2022-09-23T19:08:54.490Z,11.10
2022-09-23T19:11:21.987Z,8.40
2022-09-23T19:13:56.939Z,17.60
2022-09-23T19:16:24.466Z,13.27
2022-09-23T19:18:51.627Z,10.70
2022-09-23T19:21:20.451Z,9.37
2022-09-23T19:23:50.173Z,8.07
2022-09-23T19:26:20.400Z,9.77
2022-09-23T19:28:48.997Z,9.87
2022-09-23T19:31:22.971Z,8.80
2022-09-23T19:33:56.657Z,9.53
2022-09-23T19:36:24.770Z,9.00
2022-09-23T19:38:59.720Z,8.10
2022-09-23T19:41:28.362Z,9.43
2022-09-23T19:43:55.247Z,10.10
2022-09-23T19:46:22.370Z,11.83
2022-09-23T19:48:48.757Z,10.90
2022-09-23T19:51:16.602Z,10.80
2022-09-23T19:53:43.347Z,10.93
2022-09-23T19:56:09.820Z,9.30
2022-09-23T19:58:36.304Z,9.70
2022-09-23T20:01:07.386Z,10.80
2022-09-23T20:03:34.224Z,10.10
2022-09-23T20:06:00.570Z,10.40
2022-09-23T20:08:27.114Z,9.00
2022-09-23T20:10:53.432Z,9.23
2022-09-23T20:13:19.846Z,9.80
2022-09-23T20:15:48.362Z,10.80
2022-09-23T20:18:15.358Z,9.77
2022-09-23T20:20:41.724Z,10.17
2022-09-23T20:23:08.089Z,9.90
2022-09-23T20:25:54.386Z,9.23
2022-09-23T20:28:21.364Z,9.30
2022-09-23T20:30:47.858Z,9.40
2022-09-23T20:33:15.034Z,8.90
2022-09-23T20:35:43.619Z,9.03
2022-09-23T20:38:10.403Z,8.37
2022-09-23T20:40:38.394Z,10.20
2022-09-23T20:43:05.216Z,10.07
2022-09-23T20:45:31.843Z,9.90
2022-09-23T20:48:00.061Z,9.23
2022-09-23T20:50:26.591Z,9.37
2022-09-23T20:52:53.134Z,9.80
2022-09-23T20:55:19.411Z,9.60
2022-09-23T20:57:48.334Z,9.53
2022-09-23T21:00:15.036Z,8.93
2022-09-23T21:02:43.516Z,13.00
2022-09-23T21:05:10.409Z,10.80
2022-09-23T21:07:37.394Z,10.10
2022-09-23T21:10:06.779Z,10.23
2022-09-23T21:12:33.123Z,9.57
2022-09-23T21:14:59.391Z,8.77
2022-09-23T21:17:26.778Z,8.83
2022-09-23T21:19:53.073Z,9.57
2022-09-23T21:22:19.359Z,10.53
2022-09-23T21:25:25.853Z,8.27
2022-09-23T21:27:31.921Z,9.00
2022-09-23T21:29:59.028Z,8.60
2022-09-23T21:32:25.338Z,9.70
2022-09-23T21:34:52.431Z,8.70
2022-09-23T21:37:18.709Z,10.17
2022-09-23T21:40:05.127Z,10.00
2022-09-23T21:42:31.488Z,9.63
2022-09-23T21:44:57.805Z,9.80
2022-09-23T21:47:24.118Z,8.90
2022-09-23T21:49:51.155Z,8.80
2022-09-23T21:52:17.499Z,8.50
2022-09-23T21:54:43.982Z,9.30
2022-09-23T21:57:11.305Z,9.10
2022-09-23T21:59:37.612Z,9.60
2022-09-23T22:02:03.897Z,8.70
2022-09-23T22:04:32.169Z,9.30
2022-09-23T22:07:00.432Z,9.63
2022-09-23T22:09:26.925Z,9.30
2022-09-23T22:12:05.402Z,9.33
2022-09-23T22:14:32.282Z,9.23
2022-09-23T22:17:00.642Z,10.33
2022-09-23T22:19:35.021Z,9.00
2022-09-23T22:22:05.949Z,10.00
2022-09-23T22:24:32.237Z,10.47
2022-09-23T22:26:58.560Z,9.80
2022-09-23T22:29:43.617Z,9.30
2022-09-23T22:32:30.022Z,9.90
2022-09-23T22:34:56.671Z,9.07
2022-09-23T22:37:30.208Z,9.10
2022-09-23T22:39:57.757Z,10.47
2022-09-23T22:42:24.310Z,8.70
2022-09-23T22:44:51.202Z,9.90
2022-09-23T22:47:18.595Z,13.30
2022-09-23T22:49:49.227Z,13.47
2022-09-23T22:52:23.998Z,12.10
2022-09-23T22:54:51.801Z,10.13
2022-09-23T22:57:21.106Z,11.60
2022-09-23T22:59:50.380Z,15.90
2022-09-23T23:02:18.716Z,27.07
2022-09-23T23:04:46.985Z,13.17
2022-09-23T23:07:14.663Z,9.60
2022-09-23T23:09:41.194Z,11.40
2022-09-23T23:12:07.819Z,11.57
2022-09-23T23:14:35.855Z,10.27
2022-09-23T23:17:05.253Z,8.30
2022-09-23T23:19:31.550Z,8.77
2022-09-23T23:21:57.836Z,9.40
2022-09-23T23:24:24.315Z,10.03
2022-09-23T23:26:51.974Z,9.90
2022-09-23T23:29:20.502Z,9.53
2022-09-23T23:31:48.274Z,8.53
2022-09-23T23:34:20.428Z,9.77
2022-09-23T23:36:54.998Z,9.23
2022-09-23T23:39:25.251Z,9.10
2022-09-23T23:41:53.878Z,9.60
2022-09-23T23:44:20.529Z,9.50
2022-09-23T23:46:46.881Z,8.40
2022-09-23T23:49:13.201Z,8.50
2022-09-23T23:51:41.008Z,8.80
2022-09-23T23:54:07.564Z,8.73
2022-09-23T23:56:34.080Z,10.10
2022-09-23T23:59:04.832Z,9.47
